sensor_id;sensor_type;location;lat;lon;timestamp;pressure;altitude;pressure_sealevel;temperature;humidity
78839;BME280;68405;47.190;27.558;2023-09-18T00:00:56;100475.27;;;16.20;61.65
78839;BME280;68405;47.190;27.558;2023-09-18T00:03:40;100474.19;;;16.17;63.21
78839;BME280;68405;47.190;27.558;2023-09-18T00:06:10;100474.41;;;16.16;62.70
78839;BME280;68405;47.190;27.558;2023-09-18T00:08:40;100474.87;;;16.13;61.58
78839;BME280;68405;47.190;27.558;2023-09-18T00:11:09;100472.54;;;16.10;62.37
78839;BME280;68405;47.190;27.558;2023-09-18T00:13:38;100472.01;;;16.11;62.45
78839;BME280;68405;47.190;27.558;2023-09-18T00:16:06;100474.23;;;16.12;62.99
78839;BME280;68405;47.190;27.558;2023-09-18T00:18:35;100470.95;;;16.11;63.64
78839;BME280;68405;47.190;27.558;2023-09-18T00:21:04;100471.63;;;16.11;64.36
78839;BME280;68405;47.190;27.558;2023-09-18T00:23:34;100469.11;;;16.09;63.12
78839;BME280;68405;47.190;27.558;2023-09-18T00:26:03;100470.46;;;16.06;63.40
78839;BME280;68405;47.190;27.558;2023-09-18T00:28:32;100471.88;;;16.03;61.69
78839;BME280;68405;47.190;27.558;2023-09-18T00:31:00;100467.32;;;15.99;62.55
78839;BME280;68405;47.190;27.558;2023-09-18T00:33:29;100466.94;;;15.96;61.86
78839;BME280;68405;47.190;27.558;2023-09-18T00:35:58;100466.64;;;15.95;62.12
78839;BME280;68405;47.190;27.558;2023-09-18T00:38:27;100465.50;;;15.93;62.51
78839;BME280;68405;47.190;27.558;2023-09-18T00:40:55;100467.41;;;15.89;62.00
78839;BME280;68405;47.190;27.558;2023-09-18T00:43:24;100469.22;;;15.85;61.88
78839;BME280;68405;47.190;27.558;2023-09-18T00:45:53;100468.70;;;15.80;62.28
78839;BME280;68405;47.190;27.558;2023-09-18T00:48:22;100466.20;;;15.77;62.34
78839;BME280;68405;47.190;27.558;2023-09-18T00:50:51;100465.61;;;15.75;62.82
78839;BME280;68405;47.190;27.558;2023-09-18T00:53:22;100460.48;;;15.72;62.79
78839;BME280;68405;47.190;27.558;2023-09-18T00:55:53;100460.15;;;15.72;62.50
78839;BME280;68405;47.190;27.558;2023-09-18T00:58:24;100459.86;;;15.71;62.94
78839;BME280;68405;47.190;27.558;2023-09-18T01:00:53;100459.90;;;15.69;62.72
78839;BME280;68405;47.190;27.558;2023-09-18T01:03:23;100456.23;;;15.70;62.77
78839;BME280;68405;47.190;27.558;2023-09-18T01:05:54;100453.27;;;15.69;62.57
78839;BME280;68405;47.190;27.558;2023-09-18T01:08:23;100450.27;;;15.66;62.50
78839;BME280;68405;47.190;27.558;2023-09-18T01:11:03;100448.79;;;15.63;62.52
78839;BME280;68405;47.190;27.558;2023-09-18T01:13:40;100449.66;;;15.60;62.11
78839;BME280;68405;47.190;27.558;2023-09-18T01:16:20;100448.45;;;15.56;62.57
78839;BME280;68405;47.190;27.558;2023-09-18T01:18:52;100451.45;;;15.55;62.63
78839;BME280;68405;47.190;27.558;2023-09-18T01:21:21;100452.79;;;15.53;63.80
78839;BME280;68405;47.190;27.558;2023-09-18T01:23:50;100456.61;;;15.49;62.62
78839;BME280;68405;47.190;27.558;2023-09-18T01:26:20;100452.29;;;15.44;62.59
78839;BME280;68405;47.190;27.558;2023-09-18T01:28:49;100450.06;;;15.43;65.80
78839;BME280;68405;47.190;27.558;2023-09-18T01:31:17;100449.90;;;15.39;64.84
78839;BME280;68405;47.190;27.558;2023-09-18T01:33:47;100448.11;;;15.37;65.76
78839;BME280;68405;47.190;27.558;2023-09-18T01:36:17;100445.39;;;15.34;65.66
78839;BME280;68405;47.190;27.558;2023-09-18T01:38:47;100448.05;;;15.30;64.65
78839;BME280;68405;47.190;27.558;2023-09-18T01:41:18;100458.45;;;15.24;65.16
78839;BME280;68405;47.190;27.558;2023-09-18T01:43:47;100455.44;;;15.21;65.30
78839;BME280;68405;47.190;27.558;2023-09-18T01:46:16;100454.55;;;15.17;64.55
78839;BME280;68405;47.190;27.558;2023-09-18T01:48:47;100453.67;;;15.13;65.16
78839;BME280;68405;47.190;27.558;2023-09-18T01:51:16;100455.13;;;15.08;65.85
78839;BME280;68405;47.190;27.558;2023-09-18T01:53:45;100454.33;;;15.03;66.41
78839;BME280;68405;47.190;27.558;2023-09-18T01:56:14;100456.69;;;14.96;65.79
78839;BME280;68405;47.190;27.558;2023-09-18T01:58:43;100452.42;;;14.94;65.23
78839;BME280;68405;47.190;27.558;2023-09-18T02:01:12;100447.33;;;14.95;65.67
78839;BME280;68405;47.190;27.558;2023-09-18T03:02:13;100446.51;;;13.90;67.83
78839;BME280;68405;47.190;27.558;2023-09-18T03:04:42;100444.59;;;13.85;68.58
78839;BME280;68405;47.190;27.558;2023-09-18T03:07:13;100442.38;;;13.84;68.81
78839;BME280;68405;47.190;27.558;2023-09-18T03:09:42;100443.88;;;13.81;68.30
78839;BME280;68405;47.190;27.558;2023-09-18T03:12:11;100444.20;;;13.78;67.50
78839;BME280;68405;47.190;27.558;2023-09-18T03:14:39;100446.02;;;13.76;68.18
78839;BME280;68405;47.190;27.558;2023-09-18T03:17:08;100442.67;;;13.72;67.83
78839;BME280;68405;47.190;27.558;2023-09-18T03:19:38;100448.86;;;13.70;69.31
78839;BME280;68405;47.190;27.558;2023-09-18T03:22:07;100447.73;;;13.67;67.84
78839;BME280;68405;47.190;27.558;2023-09-18T03:24:35;100447.17;;;13.64;69.56
78839;BME280;68405;47.190;27.558;2023-09-18T03:27:05;100447.16;;;13.60;68.18
78839;BME280;68405;47.190;27.558;2023-09-18T03:29:33;100446.04;;;13.57;68.14
78839;BME280;68405;47.190;27.558;2023-09-18T03:32:02;100447.15;;;13.55;69.95
78839;BME280;68405;47.190;27.558;2023-09-18T03:34:31;100447.23;;;13.53;69.82
78839;BME280;68405;47.190;27.558;2023-09-18T03:37:00;100448.73;;;13.51;70.65
78839;BME280;68405;47.190;27.558;2023-09-18T03:39:28;100449.73;;;13.47;69.17
78839;BME280;68405;47.190;27.558;2023-09-18T03:41:57;100450.27;;;13.46;70.45
78839;BME280;68405;47.190;27.558;2023-09-18T03:44:26;100447.69;;;13.46;69.66
78839;BME280;68405;47.190;27.558;2023-09-18T03:46:54;100448.77;;;13.44;69.02
78839;BME280;68405;47.190;27.558;2023-09-18T03:49:23;100447.84;;;13.42;70.35
78839;BME280;68405;47.190;27.558;2023-09-18T03:51:52;100454.65;;;13.42;71.67
78839;BME280;68405;47.190;27.558;2023-09-18T03:54:21;100452.40;;;13.41;69.31
78839;BME280;68405;47.190;27.558;2023-09-18T03:56:49;100454.49;;;13.40;71.42
78839;BME280;68405;47.190;27.558;2023-09-18T03:59:18;100459.19;;;13.41;71.98
78839;BME280;68405;47.190;27.558;2023-09-18T04:01:47;100457.42;;;13.42;70.34
78839;BME280;68405;47.190;27.558;2023-09-18T04:04:16;100459.75;;;13.45;72.18
78839;BME280;68405;47.190;27.558;2023-09-18T04:06:45;100459.30;;;13.48;70.89
78839;BME280;68405;47.190;27.558;2023-09-18T04:09:14;100459.39;;;13.50;71.96
78839;BME280;68405;47.190;27.558;2023-09-18T04:11:43;100463.59;;;13.54;71.55
78839;BME280;68405;47.190;27.558;2023-09-18T04:14:12;100461.50;;;13.59;71.97
78839;BME280;68405;47.190;27.558;2023-09-18T04:16:42;100462.51;;;13.65;71.34
78839;BME280;68405;47.190;27.558;2023-09-18T04:19:12;100463.02;;;13.70;70.64
78839;BME280;68405;47.190;27.558;2023-09-18T04:21:41;100462.39;;;13.77;70.78
78839;BME280;68405;47.190;27.558;2023-09-18T04:24:10;100461.07;;;13.84;70.16
78839;BME280;68405;47.190;27.558;2023-09-18T04:26:39;100465.92;;;13.94;70.70
78839;BME280;68405;47.190;27.558;2023-09-18T04:29:08;100468.67;;;14.04;69.87
78839;BME280;68405;47.190;27.558;2023-09-18T04:31:37;100469.34;;;14.27;69.03
78839;BME280;68405;47.190;27.558;2023-09-18T04:34:06;100471.09;;;15.03;67.66
78839;BME280;68405;47.190;27.558;2023-09-18T04:36:35;100468.52;;;15.57;66.53
78839;BME280;68405;47.190;27.558;2023-09-18T04:39:06;100471.23;;;15.97;65.42
78839;BME280;68405;47.190;27.558;2023-09-18T04:41:35;100470.20;;;16.66;64.15
78839;BME280;68405;47.190;27.558;2023-09-18T04:44:04;100471.16;;;17.39;62.88
78839;BME280;68405;47.190;27.558;2023-09-18T04:46:34;100475.00;;;18.11;61.14
78839;BME280;68405;47.190;27.558;2023-09-18T04:49:03;100475.73;;;18.54;59.01
78839;BME280;68405;47.190;27.558;2023-09-18T04:51:32;100473.42;;;19.20;58.46
78839;BME280;68405;47.190;27.558;2023-09-18T04:54:02;100473.08;;;19.97;55.82
78839;BME280;68405;47.190;27.558;2023-09-18T04:56:32;100474.24;;;20.60;53.34
78839;BME280;68405;47.190;27.558;2023-09-18T04:59:01;100473.99;;;21.19;52.50
78839;BME280;68405;47.190;27.558;2023-09-18T05:01:31;100473.16;;;22.11;49.52
78839;BME280;68405;47.190;27.558;2023-09-18T05:04:00;100473.89;;;23.55;48.25
78839;BME280;68405;47.190;27.558;2023-09-18T05:06:29;100469.27;;;25.09;42.77
78839;BME280;68405;47.190;27.558;2023-09-18T05:08:57;100473.29;;;26.21;40.62
78839;BME280;68405;47.190;27.558;2023-09-18T05:11:26;100473.23;;;27.65;37.69
78839;BME280;68405;47.190;27.558;2023-09-18T05:13:55;100477.73;;;28.86;36.25
78839;BME280;68405;47.190;27.558;2023-09-18T05:16:24;100472.27;;;29.72;34.19
78839;BME280;68405;47.190;27.558;2023-09-18T05:18:52;100474.16;;;30.26;34.06
78839;BME280;68405;47.190;27.558;2023-09-18T05:21:21;100472.64;;;31.60;33.41
78839;BME280;68405;47.190;27.558;2023-09-18T05:23:53;100464.81;;;32.89;28.74
78839;BME280;68405;47.190;27.558;2023-09-18T05:26:22;100463.94;;;33.72;27.59
78839;BME280;68405;47.190;27.558;2023-09-18T05:28:52;100466.86;;;34.52;23.74
78839;BME280;68405;47.190;27.558;2023-09-18T05:31:22;100468.31;;;35.46;25.07
78839;BME280;68405;47.190;27.558;2023-09-18T05:33:52;100471.15;;;36.42;22.94
78839;BME280;68405;47.190;27.558;2023-09-18T05:36:21;100463.72;;;37.44;20.71
78839;BME280;68405;47.190;27.558;2023-09-18T05:38:50;100466.31;;;37.96;20.63
78839;BME280;68405;47.190;27.558;2023-09-18T05:41:18;100469.04;;;38.75;21.24
78839;BME280;68405;47.190;27.558;2023-09-18T05:43:47;100469.43;;;38.60;17.57
78839;BME280;68405;47.190;27.558;2023-09-18T05:46:16;100471.41;;;38.98;19.44
78839;BME280;68405;47.190;27.558;2023-09-18T05:48:44;100472.14;;;40.01;19.02
78839;BME280;68405;47.190;27.558;2023-09-18T05:51:13;100473.92;;;40.21;18.04
78839;BME280;68405;47.190;27.558;2023-09-18T05:53:42;100474.62;;;40.11;16.61
78839;BME280;68405;47.190;27.558;2023-09-18T05:56:11;100476.55;;;39.97;17.50
78839;BME280;68405;47.190;27.558;2023-09-18T05:58:40;100476.66;;;40.61;17.07
78839;BME280;68405;47.190;27.558;2023-09-18T06:01:09;100481.58;;;40.97;15.54
78839;BME280;68405;47.190;27.558;2023-09-18T06:03:38;100479.02;;;41.08;15.76
78839;BME280;68405;47.190;27.558;2023-09-18T06:06:07;100479.66;;;40.71;15.72
78839;BME280;68405;47.190;27.558;2023-09-18T06:08:36;100482.05;;;41.43;15.02
78839;BME280;68405;47.190;27.558;2023-09-18T06:11:05;100485.11;;;42.23;15.01
78839;BME280;68405;47.190;27.558;2023-09-18T06:13:34;100486.07;;;42.58;13.78
78839;BME280;68405;47.190;27.558;2023-09-18T06:16:04;100486.23;;;42.98;13.24
78839;BME280;68405;47.190;27.558;2023-09-18T06:18:35;100488.00;;;43.63;14.00
78839;BME280;68405;47.190;27.558;2023-09-18T06:21:06;100486.32;;;43.88;12.57
78839;BME280;68405;47.190;27.558;2023-09-18T06:23:35;100487.67;;;43.64;12.63
78839;BME280;68405;47.190;27.558;2023-09-18T06:26:04;100490.94;;;42.71;13.31
78839;BME280;68405;47.190;27.558;2023-09-18T06:28:32;100494.81;;;43.44;12.78
78839;BME280;68405;47.190;27.558;2023-09-18T06:31:02;100494.11;;;43.37;12.62
78839;BME280;68405;47.190;27.558;2023-09-18T06:33:30;100493.54;;;44.11;13.19
78839;BME280;68405;47.190;27.558;2023-09-18T06:35:59;100494.52;;;44.87;12.15
78839;BME280;68405;47.190;27.558;2023-09-18T06:38:28;100497.61;;;45.29;11.99
78839;BME280;68405;47.190;27.558;2023-09-18T06:40:57;100495.77;;;45.76;11.14
78839;BME280;68405;47.190;27.558;2023-09-18T06:43:25;100494.71;;;45.92;10.58
78839;BME280;68405;47.190;27.558;2023-09-18T06:45:54;100498.11;;;46.85;10.13
78839;BME280;68405;47.190;27.558;2023-09-18T06:48:26;100498.45;;;47.10;10.50
78839;BME280;68405;47.190;27.558;2023-09-18T06:51:01;100504.53;;;47.70;9.90
78839;BME280;68405;47.190;27.558;2023-09-18T06:53:30;100508.43;;;47.64;9.35
78839;BME280;68405;47.190;27.558;2023-09-18T06:55:59;100509.38;;;47.43;9.36
78839;BME280;68405;47.190;27.558;2023-09-18T06:58:27;100512.30;;;47.81;9.44
78839;BME280;68405;47.190;27.558;2023-09-18T07:00:56;100514.48;;;48.43;9.54
78839;BME280;68405;47.190;27.558;2023-09-18T07:03:26;100517.35;;;48.58;9.20
78839;BME280;68405;47.190;27.558;2023-09-18T07:05:55;100513.83;;;47.54;8.76
78839;BME280;68405;47.190;27.558;2023-09-18T07:08:24;100512.08;;;47.68;8.90
78839;BME280;68405;47.190;27.558;2023-09-18T07:10:53;100511.37;;;46.98;9.21
78839;BME280;68405;47.190;27.558;2023-09-18T07:13:22;100509.67;;;47.67;8.26
78839;BME280;68405;47.190;27.558;2023-09-18T07:15:51;100513.48;;;48.26;8.33
78839;BME280;68405;47.190;27.558;2023-09-18T07:18:19;100516.52;;;48.83;8.01
78839;BME280;68405;47.190;27.558;2023-09-18T07:20:49;100517.83;;;48.51;7.64
78839;BME280;68405;47.190;27.558;2023-09-18T07:23:17;100519.20;;;50.03;7.51
78839;BME280;68405;47.190;27.558;2023-09-18T07:25:48;100514.77;;;50.09;7.23
78839;BME280;68405;47.190;27.558;2023-09-18T07:28:17;100518.25;;;49.63;6.93
78839;BME280;68405;47.190;27.558;2023-09-18T07:30:47;100514.34;;;49.70;7.42
78839;BME280;68405;47.190;27.558;2023-09-18T07:33:16;100511.86;;;49.24;7.40
78839;BME280;68405;47.190;27.558;2023-09-18T07:35:47;100513.70;;;49.76;7.46
78839;BME280;68405;47.190;27.558;2023-09-18T07:38:17;100511.98;;;49.77;7.28
78839;BME280;68405;47.190;27.558;2023-09-18T07:40:47;100515.58;;;50.15;7.12
78839;BME280;68405;47.190;27.558;2023-09-18T07:43:16;100510.27;;;49.58;6.54
78839;BME280;68405;47.190;27.558;2023-09-18T07:45:45;100506.61;;;49.96;6.76
78839;BME280;68405;47.190;27.558;2023-09-18T07:48:13;100500.48;;;50.31;6.51
78839;BME280;68405;47.190;27.558;2023-09-18T07:50:46;100507.35;;;50.04;6.69
78839;BME280;68405;47.190;27.558;2023-09-18T07:53:17;100507.17;;;50.33;6.45
78839;BME280;68405;47.190;27.558;2023-09-18T07:55:47;100507.61;;;49.83;6.31
78839;BME280;68405;47.190;27.558;2023-09-18T07:58:15;100507.48;;;50.05;6.30
78839;BME280;68405;47.190;27.558;2023-09-18T08:00:44;100503.63;;;50.16;6.16
78839;BME280;68405;47.190;27.558;2023-09-18T08:03:13;100501.21;;;50.38;5.81
78839;BME280;68405;47.190;27.558;2023-09-18T08:05:42;100499.44;;;50.84;5.98
78839;BME280;68405;47.190;27.558;2023-09-18T08:08:12;100498.92;;;51.04;6.09
78839;BME280;68405;47.190;27.558;2023-09-18T08:10:41;100498.07;;;51.74;5.92
78839;BME280;68405;47.190;27.558;2023-09-18T08:13:10;100495.02;;;50.78;5.52
78839;BME280;68405;47.190;27.558;2023-09-18T08:15:39;100493.86;;;50.29;6.00
78839;BME280;68405;47.190;27.558;2023-09-18T08:18:08;100489.44;;;50.93;5.95
78839;BME280;68405;47.190;27.558;2023-09-18T08:20:39;100483.23;;;51.41;5.82
78839;BME280;68405;47.190;27.558;2023-09-18T08:23:08;100487.95;;;51.15;5.72
78839;BME280;68405;47.190;27.558;2023-09-18T08:25:37;100485.80;;;50.65;5.91
78839;BME280;68405;47.190;27.558;2023-09-18T08:28:08;100485.92;;;50.65;5.76
78839;BME280;68405;47.190;27.558;2023-09-18T08:30:37;100484.20;;;50.41;5.78
78839;BME280;68405;47.190;27.558;2023-09-18T08:33:08;100481.54;;;50.12;5.86
78839;BME280;68405;47.190;27.558;2023-09-18T08:35:37;100480.95;;;50.02;6.05
78839;BME280;68405;47.190;27.558;2023-09-18T08:38:07;100480.09;;;48.53;6.48
78839;BME280;68405;47.190;27.558;2023-09-18T08:40:36;100474.45;;;48.98;6.21
78839;BME280;68405;47.190;27.558;2023-09-18T08:43:05;100475.52;;;48.61;6.08
78839;BME280;68405;47.190;27.558;2023-09-18T08:45:37;100470.27;;;48.51;6.05
78839;BME280;68405;47.190;27.558;2023-09-18T08:48:07;100472.06;;;47.71;6.28
78839;BME280;68405;47.190;27.558;2023-09-18T08:50:37;100474.92;;;47.60;6.44
78839;BME280;68405;47.190;27.558;2023-09-18T08:53:07;100474.98;;;47.14;6.67
78839;BME280;68405;47.190;27.558;2023-09-18T08:55:36;100471.09;;;47.66;6.43
78839;BME280;68405;47.190;27.558;2023-09-18T08:58:06;100468.17;;;48.10;6.47
78839;BME280;68405;47.190;27.558;2023-09-18T09:00:37;100466.98;;;47.67;6.31
78839;BME280;68405;47.190;27.558;2023-09-18T09:03:06;100468.20;;;47.98;6.26
78839;BME280;68405;47.190;27.558;2023-09-18T09:05:36;100467.41;;;47.98;6.44
78839;BME280;68405;47.190;27.558;2023-09-18T09:08:05;100463.05;;;47.42;6.69
78839;BME280;68405;47.190;27.558;2023-09-18T09:10:34;100458.86;;;46.69;6.65
78839;BME280;68405;47.190;27.558;2023-09-18T09:13:04;100459.73;;;46.27;6.89
78839;BME280;68405;47.190;27.558;2023-09-18T09:15:42;100459.62;;;45.68;7.19
78839;BME280;68405;47.190;27.558;2023-09-18T09:18:14;100452.32;;;46.02;7.14
78839;BME280;68405;47.190;27.558;2023-09-18T09:20:54;100452.00;;;46.92;6.70
78839;BME280;68405;47.190;27.558;2023-09-18T09:23:28;100446.27;;;46.38;6.86
78839;BME280;68405;47.190;27.558;2023-09-18T09:26:13;100450.08;;;46.51;6.86
78839;BME280;68405;47.190;27.558;2023-09-18T09:28:43;100447.58;;;46.61;6.99
78839;BME280;68405;47.190;27.558;2023-09-18T09:31:23;100453.00;;;47.49;6.55
78839;BME280;68405;47.190;27.558;2023-09-18T09:33:54;100455.77;;;47.31;6.33
78839;BME280;68405;47.190;27.558;2023-09-18T09:36:23;100453.10;;;46.28;6.84
78839;BME280;68405;47.190;27.558;2023-09-18T09:38:56;100446.33;;;46.13;7.03
78839;BME280;68405;47.190;27.558;2023-09-18T09:41:26;100438.40;;;46.10;7.11
78839;BME280;68405;47.190;27.558;2023-09-18T09:43:56;100430.64;;;45.96;7.01
78839;BME280;68405;47.190;27.558;2023-09-18T09:46:26;100430.48;;;45.56;7.14
78839;BME280;68405;47.190;27.558;2023-09-18T09:49:02;100428.90;;;45.68;6.95
78839;BME280;68405;47.190;27.558;2023-09-18T09:51:33;100425.38;;;44.78;7.23
78839;BME280;68405;47.190;27.558;2023-09-18T09:54:03;100431.72;;;43.93;7.47
78839;BME280;68405;47.190;27.558;2023-09-18T09:56:45;100433.17;;;43.65;7.57
78839;BME280;68405;47.190;27.558;2023-09-18T09:59:16;100434.77;;;43.32;7.86
78839;BME280;68405;47.190;27.558;2023-09-18T10:01:47;100432.48;;;42.80;8.20
78839;BME280;68405;47.190;27.558;2023-09-18T10:04:18;100437.44;;;42.70;8.32
78839;BME280;68405;47.190;27.558;2023-09-18T10:06:52;100427.90;;;42.20;8.56
78839;BME280;68405;47.190;27.558;2023-09-18T10:09:22;100429.96;;;42.09;8.91
78839;BME280;68405;47.190;27.558;2023-09-18T10:11:53;100427.45;;;41.82;8.89
78839;BME280;68405;47.190;27.558;2023-09-18T10:14:30;100426.38;;;41.59;9.06
78839;BME280;68405;47.190;27.558;2023-09-18T10:17:08;100412.54;;;41.95;9.04
78839;BME280;68405;47.190;27.558;2023-09-18T10:19:49;100410.72;;;42.35;8.83
78839;BME280;68405;47.190;27.558;2023-09-18T10:22:33;100416.17;;;42.24;8.81
78839;BME280;68405;47.190;27.558;2023-09-18T10:25:11;100412.66;;;42.43;8.59
78839;BME280;68405;47.190;27.558;2023-09-18T10:27:41;100405.88;;;42.13;8.75
78839;BME280;68405;47.190;27.558;2023-09-18T10:30:14;100400.80;;;42.25;8.62
78839;BME280;68405;47.190;27.558;2023-09-18T10:32:47;100395.62;;;41.66;9.20
78839;BME280;68405;47.190;27.558;2023-09-18T10:35:17;100394.73;;;41.73;9.06
78839;BME280;68405;47.190;27.558;2023-09-18T10:37:49;100393.67;;;40.95;9.51
78839;BME280;68405;47.190;27.558;2023-09-18T10:40:19;100397.16;;;41.32;9.19
78839;BME280;68405;47.190;27.558;2023-09-18T10:42:50;100388.15;;;40.68;9.52
78839;BME280;68405;47.190;27.558;2023-09-18T10:45:21;100379.05;;;40.83;9.46
78839;BME280;68405;47.190;27.558;2023-09-18T10:47:51;100377.73;;;40.58;9.58
78839;BME280;68405;47.190;27.558;2023-09-18T10:50:25;100374.38;;;40.52;9.85
78839;BME280;68405;47.190;27.558;2023-09-18T10:52:55;100371.31;;;40.70;9.91
78839;BME280;68405;47.190;27.558;2023-09-18T10:55:26;100370.58;;;39.97;10.14
78839;BME280;68405;47.190;27.558;2023-09-18T10:57:57;100366.77;;;39.88;10.19
78839;BME280;68405;47.190;27.558;2023-09-18T11:00:28;100368.35;;;39.75;10.21
78839;BME280;68405;47.190;27.558;2023-09-18T11:03:12;100365.23;;;39.78;10.20
78839;BME280;68405;47.190;27.558;2023-09-18T11:05:43;100365.27;;;39.55;10.57
78839;BME280;68405;47.190;27.558;2023-09-18T11:08:29;100367.46;;;38.80;11.36
78839;BME280;68405;47.190;27.558;2023-09-18T11:11:03;100363.48;;;38.32;11.72
78839;BME280;68405;47.190;27.558;2023-09-18T11:13:39;100354.71;;;38.18;12.09
78839;BME280;68405;47.190;27.558;2023-09-18T11:16:17;100353.17;;;38.17;12.10
78839;BME280;68405;47.190;27.558;2023-09-18T11:18:48;100348.42;;;37.90;12.18
78839;BME280;68405;47.190;27.558;2023-09-18T11:21:25;100342.74;;;37.39;12.51
78839;BME280;68405;47.190;27.558;2023-09-18T11:24:02;100341.40;;;36.94;12.83
78839;BME280;68405;47.190;27.558;2023-09-18T11:26:32;100343.45;;;36.56;13.30
78839;BME280;68405;47.190;27.558;2023-09-18T11:29:05;100334.22;;;36.08;13.49
78839;BME280;68405;47.190;27.558;2023-09-18T11:31:51;100336.64;;;35.60;14.06
78839;BME280;68405;47.190;27.558;2023-09-18T11:34:23;100329.18;;;35.64;13.68
78839;BME280;68405;47.190;27.558;2023-09-18T11:36:55;100332.71;;;35.40;14.17
78839;BME280;68405;47.190;27.558;2023-09-18T11:39:38;100330.83;;;34.89;14.66
78839;BME280;68405;47.190;27.558;2023-09-18T11:42:12;100336.39;;;34.48;15.05
78839;BME280;68405;47.190;27.558;2023-09-18T11:44:41;100333.67;;;34.00;15.66
78839;BME280;68405;47.190;27.558;2023-09-18T11:47:16;100328.79;;;34.08;15.37
78839;BME280;68405;47.190;27.558;2023-09-18T11:49:48;100333.21;;;33.76;16.07
78839;BME280;68405;47.190;27.558;2023-09-18T11:52:22;100322.83;;;33.20;16.13
78839;BME280;68405;47.190;27.558;2023-09-18T11:54:52;100323.14;;;32.99;16.36
78839;BME280;68405;47.190;27.558;2023-09-18T11:57:23;100319.52;;;32.53;16.44
78839;BME280;68405;47.190;27.558;2023-09-18T11:59:52;100309.16;;;32.36;16.81
78839;BME280;68405;47.190;27.558;2023-09-18T12:02:28;100309.55;;;32.10;17.22
78839;BME280;68405;47.190;27.558;2023-09-18T12:05:12;100314.39;;;31.59;17.89
78839;BME280;68405;47.190;27.558;2023-09-18T12:07:45;100310.57;;;31.41;17.78
78839;BME280;68405;47.190;27.558;2023-09-18T12:10:15;100314.56;;;31.51;18.02
78839;BME280;68405;47.190;27.558;2023-09-18T12:12:46;100313.98;;;31.30;17.81
78839;BME280;68405;47.190;27.558;2023-09-18T12:15:18;100311.02;;;31.18;17.97
78839;BME280;68405;47.190;27.558;2023-09-18T12:17:48;100312.59;;;30.73;18.49
78839;BME280;68405;47.190;27.558;2023-09-18T12:20:18;100313.48;;;30.39;18.87
78839;BME280;68405;47.190;27.558;2023-09-18T12:22:49;100305.81;;;30.16;18.87
78839;BME280;68405;47.190;27.558;2023-09-18T12:25:19;100304.13;;;30.23;18.81
78839;BME280;68405;47.190;27.558;2023-09-18T12:27:54;100307.53;;;30.29;18.58
78839;BME280;68405;47.190;27.558;2023-09-18T12:30:23;100304.62;;;30.09;19.00
78839;BME280;68405;47.190;27.558;2023-09-18T12:32:53;100295.73;;;29.90;19.11
78839;BME280;68405;47.190;27.558;2023-09-18T12:35:26;100296.55;;;29.89;19.40
78839;BME280;68405;47.190;27.558;2023-09-18T12:37:58;100293.25;;;29.88;19.20
78839;BME280;68405;47.190;27.558;2023-09-18T12:40:29;100298.98;;;29.75;19.43
78839;BME280;68405;47.190;27.558;2023-09-18T12:43:00;100293.36;;;29.46;19.73
78839;BME280;68405;47.190;27.558;2023-09-18T12:45:30;100286.21;;;29.27;20.19
78839;BME280;68405;47.190;27.558;2023-09-18T12:47:59;100293.98;;;29.23;19.83
78839;BME280;68405;47.190;27.558;2023-09-18T12:50:28;100283.23;;;29.06;19.93
78839;BME280;68405;47.190;27.558;2023-09-18T12:53:09;100289.45;;;29.03;19.96
78839;BME280;68405;47.190;27.558;2023-09-18T12:55:38;100281.98;;;28.84;20.38
78839;BME280;68405;47.190;27.558;2023-09-18T12:58:11;100276.41;;;28.88;20.34
78839;BME280;68405;47.190;27.558;2023-09-18T13:00:47;100272.27;;;28.78;20.49
78839;BME280;68405;47.190;27.558;2023-09-18T13:03:17;100270.47;;;28.87;20.60
78839;BME280;68405;47.190;27.558;2023-09-18T13:05:47;100272.39;;;28.85;20.46
78839;BME280;68405;47.190;27.558;2023-09-18T13:08:22;100266.73;;;28.75;20.61
78839;BME280;68405;47.190;27.558;2023-09-18T13:10:52;100260.80;;;28.66;20.87
78839;BME280;68405;47.190;27.558;2023-09-18T13:13:22;100261.92;;;28.48;21.14
78839;BME280;68405;47.190;27.558;2023-09-18T13:15:51;100255.98;;;28.35;21.33
78839;BME280;68405;47.190;27.558;2023-09-18T13:18:20;100253.02;;;28.27;21.63
78839;BME280;68405;47.190;27.558;2023-09-18T13:20:50;100249.25;;;28.20;21.80
78839;BME280;68405;47.190;27.558;2023-09-18T13:23:19;100244.17;;;28.14;21.69
78839;BME280;68405;47.190;27.558;2023-09-18T13:25:48;100246.22;;;28.01;22.16
78839;BME280;68405;47.190;27.558;2023-09-18T13:28:17;100249.27;;;27.99;22.08
78839;BME280;68405;47.190;27.558;2023-09-18T13:30:50;100244.14;;;27.88;22.30
78839;BME280;68405;47.190;27.558;2023-09-18T13:33:19;100251.77;;;27.79;22.06
78839;BME280;68405;47.190;27.558;2023-09-18T13:35:48;100256.67;;;27.63;22.52
78839;BME280;68405;47.190;27.558;2023-09-18T13:38:17;100254.63;;;27.49;22.52
78839;BME280;68405;47.190;27.558;2023-09-18T13:40:47;100250.41;;;27.43;22.60
78839;BME280;68405;47.190;27.558;2023-09-18T13:43:16;100245.18;;;27.38;22.53
78839;BME280;68405;47.190;27.558;2023-09-18T13:45:46;100241.83;;;27.13;23.26
78839;BME280;68405;47.190;27.558;2023-09-18T13:48:15;100235.70;;;26.99;23.02
78839;BME280;68405;47.190;27.558;2023-09-18T13:50:45;100239.23;;;27.01;23.27
78839;BME280;68405;47.190;27.558;2023-09-18T13:53:14;100235.67;;;26.88;23.12
78839;BME280;68405;47.190;27.558;2023-09-18T13:55:44;100231.86;;;26.79;23.22
78839;BME280;68405;47.190;27.558;2023-09-18T13:58:13;100228.59;;;26.67;23.53